Pagrindinis puslapis
METAR-TAF:

METAR-TAF

Oro uostai :

Base Presidente Eduardo Frei Montalva, Čilė

platuma: 62-11-28S, ilguma: 58-59-11W, Aukštis: 45 m

Dabartinis oras

Ataskaita buvo paskelbta 8 valandos ir 8 minutes, ne 01:00 UTC
Vėjas 19 kt iš Šiaurės/Šiaurės Rytų
Temperatūra 2°C
Drėgmė 93%
Slėgis 981 hPa
Matomumas: 4000 m
Išsisklaidę debesys ne aukštis 400 ft
Apsiniaukę ne aukštis 800 ft
lietus

METAR: SCRM 190100Z 02019KT 4000 -SHRA SCT004 OVC008 02/01 Q0981

Laikas: 06:08 (09:08 UTC)


TAF: trūkstamas

Orai ataskaitas ir orų prognozės (METAR, TAF).

turimą stotys yra geltonos ir raudonos taškus žemėlapyje.

Perkelti pele per norėdami pamatyti stoties vardą.

Tada spustelėkite, norėdami matyti oro stebėjimo ir prognozės.

Norėdami pakeisti žemėlapį: spustelėkite ant žalios mygtukų su juodo kryžiaus žemyn,; žalią mygtuką su brūkšneliu, jei norite nutolinti; arba žalių rodyklių gretimoms žemėlapius.


METAR-TAF: